sensor_id;sensor_type;location;lat;lon;timestamp;P1;durP1;ratioP1;P2;durP2;ratioP2
16197;SDS011;8206;51.440;6.914;2023-02-11T00:01:04;7.13;;;6.63;;
16197;SDS011;8206;51.440;6.914;2023-02-11T00:03:32;8.30;;;7.27;;
16197;SDS011;8206;51.440;6.914;2023-02-11T00:05:59;4.60;;;4.10;;
16197;SDS011;8206;51.440;6.914;2023-02-11T00:08:27;5.90;;;5.40;;
16197;SDS011;8206;51.440;6.914;2023-02-11T00:10:54;7.53;;;5.20;;
16197;SDS011;8206;51.440;6.914;2023-02-11T00:13:24;16.87;;;7.63;;
16197;SDS011;8206;51.440;6.914;2023-02-11T00:15:51;7.27;;;6.77;;
16197;SDS011;8206;51.440;6.914;2023-02-11T00:18:18;6.93;;;4.67;;
16197;SDS011;8206;51.440;6.914;2023-02-11T00:20:45;19.20;;;5.77;;
16197;SDS011;8206;51.440;6.914;2023-02-11T00:23:12;10.83;;;6.57;;
16197;SDS011;8206;51.440;6.914;2023-02-11T00:25:39;3.70;;;3.40;;
16197;SDS011;8206;51.440;6.914;2023-02-11T00:28:06;6.63;;;5.47;;
16197;SDS011;8206;51.440;6.914;2023-02-11T00:30:34;6.43;;;5.93;;
16197;SDS011;8206;51.440;6.914;2023-02-11T00:33:01;7.90;;;6.30;;
16197;SDS011;8206;51.440;6.914;2023-02-11T00:35:28;8.33;;;6.07;;
16197;SDS011;8206;51.440;6.914;2023-02-11T00:37:55;13.90;;;6.20;;
16197;SDS011;8206;51.440;6.914;2023-02-11T00:40:22;4.30;;;4.10;;
16197;SDS011;8206;51.440;6.914;2023-02-11T00:42:49;4.67;;;4.37;;
16197;SDS011;8206;51.440;6.914;2023-02-11T00:45:16;4.97;;;4.57;;
16197;SDS011;8206;51.440;6.914;2023-02-11T00:47:46;4.57;;;3.53;;
16197;SDS011;8206;51.440;6.914;2023-02-11T00:50:12;6.80;;;6.27;;
16197;SDS011;8206;51.440;6.914;2023-02-11T00:52:39;4.23;;;3.83;;
16197;SDS011;8206;51.440;6.914;2023-02-11T00:55:06;11.47;;;7.23;;
16197;SDS011;8206;51.440;6.914;2023-02-11T00:57:33;8.10;;;5.17;;
16197;SDS011;8206;51.440;6.914;2023-02-11T01:00:00;8.30;;;5.50;;
16197;SDS011;8206;51.440;6.914;2023-02-11T01:02:27;13.47;;;6.43;;
16197;SDS011;8206;51.440;6.914;2023-02-11T01:04:55;5.63;;;3.73;;
16197;SDS011;8206;51.440;6.914;2023-02-11T01:07:23;11.20;;;5.27;;
16197;SDS011;8206;51.440;6.914;2023-02-11T01:09:50;6.40;;;5.80;;
16197;SDS011;8206;51.440;6.914;2023-02-11T01:12:17;17.70;;;8.53;;
16197;SDS011;8206;51.440;6.914;2023-02-11T01:14:43;7.60;;;5.90;;
16197;SDS011;8206;51.440;6.914;2023-02-11T01:17:10;5.33;;;4.93;;
16197;SDS011;8206;51.440;6.914;2023-02-11T01:19:37;5.63;;;5.23;;
16197;SDS011;8206;51.440;6.914;2023-02-11T01:22:05;8.17;;;5.73;;
16197;SDS011;8206;51.440;6.914;2023-02-11T01:24:32;8.03;;;5.60;;
16197;SDS011;8206;51.440;6.914;2023-02-11T01:26:59;5.63;;;5.13;;
16197;SDS011;8206;51.440;6.914;2023-02-11T01:29:26;5.60;;;3.97;;
16197;SDS011;8206;51.440;6.914;2023-02-11T01:31:52;16.20;;;6.40;;
16197;SDS011;8206;51.440;6.914;2023-02-11T01:34:19;5.53;;;5.00;;
16197;SDS011;8206;51.440;6.914;2023-02-11T01:36:46;3.67;;;3.30;;
16197;SDS011;8206;51.440;6.914;2023-02-11T01:39:14;3.17;;;2.87;;
16197;SDS011;8206;51.440;6.914;2023-02-11T01:41:41;15.47;;;5.13;;
16197;SDS011;8206;51.440;6.914;2023-02-11T01:46:50;4.70;;;4.27;;
16197;SDS011;8206;51.440;6.914;2023-02-11T01:49:18;3.97;;;3.70;;
16197;SDS011;8206;51.440;6.914;2023-02-11T01:51:49;12.13;;;4.93;;
16197;SDS011;8206;51.440;6.914;2023-02-11T01:54:20;3.80;;;3.60;;
16197;SDS011;8206;51.440;6.914;2023-02-11T01:57:06;5.83;;;5.43;;
16197;SDS011;8206;51.440;6.914;2023-02-11T01:59:51;2.87;;;2.63;;
16197;SDS011;8206;51.440;6.914;2023-02-11T02:02:25;4.17;;;3.97;;
16197;SDS011;8206;51.440;6.914;2023-02-11T02:04:59;2.27;;;2.17;;
16197;SDS011;8206;51.440;6.914;2023-02-11T02:07:31;5.57;;;4.97;;
16197;SDS011;8206;51.440;6.914;2023-02-11T02:10:04;4.53;;;3.73;;
16197;SDS011;8206;51.440;6.914;2023-02-11T02:12:36;2.53;;;2.43;;
16197;SDS011;8206;51.440;6.914;2023-02-11T02:15:19;5.23;;;4.77;;
16197;SDS011;8206;51.440;6.914;2023-02-11T02:17:51;9.40;;;5.63;;
16197;SDS011;8206;51.440;6.914;2023-02-11T02:23:21;8.30;;;4.60;;
16197;SDS011;8206;51.440;6.914;2023-02-11T02:26:18;4.67;;;4.37;;
16197;SDS011;8206;51.440;6.914;2023-02-11T02:29:22;5.43;;;4.93;;
16197;SDS011;8206;51.440;6.914;2023-02-11T02:35:09;14.23;;;3.73;;
16197;SDS011;8206;51.440;6.914;2023-02-11T02:37:45;7.50;;;5.93;;
16197;SDS011;8206;51.440;6.914;2023-02-11T02:40:17;13.27;;;4.87;;
16197;SDS011;8206;51.440;6.914;2023-02-11T02:42:47;5.07;;;4.77;;
16197;SDS011;8206;51.440;6.914;2023-02-11T02:45:16;6.50;;;5.93;;
16197;SDS011;8206;51.440;6.914;2023-02-11T02:47:44;4.67;;;3.83;;
16197;SDS011;8206;51.440;6.914;2023-02-11T02:50:11;3.20;;;3.00;;
16197;SDS011;8206;51.440;6.914;2023-02-11T02:52:45;7.03;;;4.53;;
16197;SDS011;8206;51.440;6.914;2023-02-11T02:55:23;5.97;;;5.57;;
16197;SDS011;8206;51.440;6.914;2023-02-11T03:00:58;4.83;;;4.53;;
16197;SDS011;8206;51.440;6.914;2023-02-11T03:03:37;10.80;;;6.87;;
16197;SDS011;8206;51.440;6.914;2023-02-11T03:06:10;6.60;;;5.10;;
16197;SDS011;8206;51.440;6.914;2023-02-11T03:08:43;4.43;;;4.17;;
16197;SDS011;8206;51.440;6.914;2023-02-11T03:11:14;6.30;;;5.80;;
16197;SDS011;8206;51.440;6.914;2023-02-11T03:13:43;6.17;;;5.77;;
16197;SDS011;8206;51.440;6.914;2023-02-11T03:16:12;14.07;;;4.93;;
16197;SDS011;8206;51.440;6.914;2023-02-11T03:18:45;7.57;;;6.27;;
16197;SDS011;8206;51.440;6.914;2023-02-11T03:21:15;4.97;;;4.67;;
16197;SDS011;8206;51.440;6.914;2023-02-11T03:23:46;8.30;;;5.33;;
16197;SDS011;8206;51.440;6.914;2023-02-11T03:26:16;6.27;;;5.57;;
16197;SDS011;8206;51.440;6.914;2023-02-11T03:28:48;5.67;;;5.13;;
16197;SDS011;8206;51.440;6.914;2023-02-11T03:31:25;4.63;;;4.40;;
16197;SDS011;8206;51.440;6.914;2023-02-11T03:33:58;7.00;;;5.77;;
16197;SDS011;8206;51.440;6.914;2023-02-11T03:36:31;9.97;;;4.40;;
16197;SDS011;8206;51.440;6.914;2023-02-11T03:39:10;12.90;;;3.67;;
16197;SDS011;8206;51.440;6.914;2023-02-11T03:41:39;9.77;;;5.60;;
16197;SDS011;8206;51.440;6.914;2023-02-11T03:44:08;5.93;;;5.43;;
16197;SDS011;8206;51.440;6.914;2023-02-11T03:46:37;8.97;;;5.23;;
16197;SDS011;8206;51.440;6.914;2023-02-11T03:49:10;5.57;;;4.03;;
16197;SDS011;8206;51.440;6.914;2023-02-11T03:51:38;4.10;;;3.83;;
16197;SDS011;8206;51.440;6.914;2023-02-11T03:54:08;5.47;;;5.03;;
16197;SDS011;8206;51.440;6.914;2023-02-11T03:56:40;5.30;;;4.93;;
16197;SDS011;8206;51.440;6.914;2023-02-11T03:59:12;10.87;;;6.47;;
16197;SDS011;8206;51.440;6.914;2023-02-11T04:01:39;4.27;;;3.97;;
16197;SDS011;8206;51.440;6.914;2023-02-11T04:04:05;12.93;;;5.93;;
16197;SDS011;8206;51.440;6.914;2023-02-11T04:06:33;6.67;;;5.60;;
16197;SDS011;8206;51.440;6.914;2023-02-11T04:09:00;7.03;;;4.37;;
16197;SDS011;8206;51.440;6.914;2023-02-11T04:11:27;2.77;;;2.57;;
16197;SDS011;8206;51.440;6.914;2023-02-11T04:13:54;4.40;;;4.10;;
16197;SDS011;8206;51.440;6.914;2023-02-11T04:16:21;4.50;;;4.10;;
16197;SDS011;8206;51.440;6.914;2023-02-11T04:18:48;2.97;;;2.83;;
16197;SDS011;8206;51.440;6.914;2023-02-11T04:21:14;3.30;;;3.20;;
16197;SDS011;8206;51.440;6.914;2023-02-11T04:23:42;14.53;;;4.23;;
16197;SDS011;8206;51.440;6.914;2023-02-11T04:26:09;8.03;;;5.33;;
16197;SDS011;8206;51.440;6.914;2023-02-11T04:28:36;5.87;;;5.30;;
16197;SDS011;8206;51.440;6.914;2023-02-11T04:31:03;6.43;;;5.93;;
16197;SDS011;8206;51.440;6.914;2023-02-11T04:33:30;7.30;;;4.57;;
16197;SDS011;8206;51.440;6.914;2023-02-11T04:35:56;7.23;;;5.90;;
16197;SDS011;8206;51.440;6.914;2023-02-11T04:38:23;3.63;;;3.43;;
16197;SDS011;8206;51.440;6.914;2023-02-11T04:40:51;6.93;;;6.10;;
16197;SDS011;8206;51.440;6.914;2023-02-11T04:43:18;6.67;;;5.20;;
16197;SDS011;8206;51.440;6.914;2023-02-11T04:45:45;10.03;;;6.17;;
16197;SDS011;8206;51.440;6.914;2023-02-11T04:48:11;6.43;;;5.83;;
16197;SDS011;8206;51.440;6.914;2023-02-11T04:50:38;11.60;;;5.10;;
16197;SDS011;8206;51.440;6.914;2023-02-11T04:53:05;7.77;;;6.53;;
16197;SDS011;8206;51.440;6.914;2023-02-11T04:55:31;7.60;;;2.77;;
16197;SDS011;8206;51.440;6.914;2023-02-11T04:58:00;8.77;;;5.53;;
16197;SDS011;8206;51.440;6.914;2023-02-11T05:00:26;12.37;;;6.00;;
16197;SDS011;8206;51.440;6.914;2023-02-11T05:02:53;6.37;;;5.77;;
16197;SDS011;8206;51.440;6.914;2023-02-11T05:05:20;3.70;;;3.50;;
16197;SDS011;8206;51.440;6.914;2023-02-11T05:07:46;8.77;;;5.93;;
16197;SDS011;8206;51.440;6.914;2023-02-11T05:10:13;5.67;;;5.17;;
16197;SDS011;8206;51.440;6.914;2023-02-11T05:12:40;7.73;;;6.03;;
16197;SDS011;8206;51.440;6.914;2023-02-11T05:15:08;5.87;;;5.27;;
16197;SDS011;8206;51.440;6.914;2023-02-11T05:17:35;4.97;;;4.67;;
16197;SDS011;8206;51.440;6.914;2023-02-11T05:20:02;10.00;;;6.80;;
16197;SDS011;8206;51.440;6.914;2023-02-11T05:22:29;7.80;;;6.73;;
16197;SDS011;8206;51.440;6.914;2023-02-11T05:24:56;13.07;;;5.70;;
16197;SDS011;8206;51.440;6.914;2023-02-11T05:27:22;10.57;;;5.70;;
16197;SDS011;8206;51.440;6.914;2023-02-11T05:29:49;5.43;;;5.10;;
16197;SDS011;8206;51.440;6.914;2023-02-11T05:32:17;2.77;;;2.67;;
16197;SDS011;8206;51.440;6.914;2023-02-11T05:34:44;7.13;;;6.70;;
16197;SDS011;8206;51.440;6.914;2023-02-11T05:37:11;6.63;;;6.00;;
16197;SDS011;8206;51.440;6.914;2023-02-11T05:39:38;5.67;;;5.10;;
16197;SDS011;8206;51.440;6.914;2023-02-11T05:42:04;8.80;;;8.03;;
16197;SDS011;8206;51.440;6.914;2023-02-11T05:44:31;5.87;;;5.37;;
16197;SDS011;8206;51.440;6.914;2023-02-11T05:46:58;14.33;;;7.50;;
16197;SDS011;8206;51.440;6.914;2023-02-11T05:49:26;7.73;;;6.80;;
16197;SDS011;8206;51.440;6.914;2023-02-11T05:51:53;6.23;;;5.63;;
16197;SDS011;8206;51.440;6.914;2023-02-11T05:54:20;8.10;;;5.60;;
16197;SDS011;8206;51.440;6.914;2023-02-11T05:56:46;5.50;;;5.20;;
16197;SDS011;8206;51.440;6.914;2023-02-11T05:59:13;7.40;;;6.73;;
16197;SDS011;8206;51.440;6.914;2023-02-11T06:01:40;8.00;;;7.30;;
16197;SDS011;8206;51.440;6.914;2023-02-11T06:04:07;6.83;;;5.63;;
16197;SDS011;8206;51.440;6.914;2023-02-11T06:06:35;6.87;;;6.27;;
16197;SDS011;8206;51.440;6.914;2023-02-11T06:09:02;7.00;;;5.93;;
16197;SDS011;8206;51.440;6.914;2023-02-11T06:11:29;4.90;;;4.67;;
16197;SDS011;8206;51.440;6.914;2023-02-11T06:13:56;6.80;;;6.10;;
16197;SDS011;8206;51.440;6.914;2023-02-11T06:16:22;11.43;;;6.33;;
16197;SDS011;8206;51.440;6.914;2023-02-11T06:18:49;18.73;;;9.43;;
16197;SDS011;8206;51.440;6.914;2023-02-11T06:21:16;13.13;;;8.20;;
16197;SDS011;8206;51.440;6.914;2023-02-11T06:23:44;8.30;;;7.67;;
16197;SDS011;8206;51.440;6.914;2023-02-11T06:26:15;18.20;;;8.57;;
16197;SDS011;8206;51.440;6.914;2023-02-11T06:28:43;13.40;;;7.77;;
16197;SDS011;8206;51.440;6.914;2023-02-11T06:31:10;8.00;;;7.27;;
16197;SDS011;8206;51.440;6.914;2023-02-11T06:33:37;9.53;;;7.47;;
16197;SDS011;8206;51.440;6.914;2023-02-11T06:36:04;11.73;;;6.10;;
16197;SDS011;8206;51.440;6.914;2023-02-11T06:38:37;9.40;;;8.40;;
16197;SDS011;8206;51.440;6.914;2023-02-11T06:41:07;6.50;;;5.90;;
16197;SDS011;8206;51.440;6.914;2023-02-11T06:43:34;9.57;;;7.47;;
16197;SDS011;8206;51.440;6.914;2023-02-11T06:46:01;14.60;;;8.17;;
16197;SDS011;8206;51.440;6.914;2023-02-11T06:48:28;7.53;;;6.93;;
16197;SDS011;8206;51.440;6.914;2023-02-11T06:50:55;11.07;;;7.43;;
16197;SDS011;8206;51.440;6.914;2023-02-11T06:53:21;8.30;;;7.40;;
16197;SDS011;8206;51.440;6.914;2023-02-11T06:55:49;11.03;;;7.40;;
16197;SDS011;8206;51.440;6.914;2023-02-11T06:58:17;9.13;;;7.07;;
16197;SDS011;8206;51.440;6.914;2023-02-11T07:00:44;5.07;;;4.57;;
16197;SDS011;8206;51.440;6.914;2023-02-11T07:03:10;7.60;;;6.87;;
16197;SDS011;8206;51.440;6.914;2023-02-11T07:05:37;4.43;;;4.20;;
16197;SDS011;8206;51.440;6.914;2023-02-11T07:08:07;12.77;;;6.03;;
16197;SDS011;8206;51.440;6.914;2023-02-11T07:10:34;7.87;;;7.00;;
16197;SDS011;8206;51.440;6.914;2023-02-11T07:13:01;8.63;;;6.20;;
16197;SDS011;8206;51.440;6.914;2023-02-11T07:15:29;6.10;;;5.60;;
16197;SDS011;8206;51.440;6.914;2023-02-11T07:17:56;8.97;;;8.10;;
16197;SDS011;8206;51.440;6.914;2023-02-11T07:20:23;25.33;;;7.17;;
16197;SDS011;8206;51.440;6.914;2023-02-11T07:22:50;7.43;;;6.90;;
16197;SDS011;8206;51.440;6.914;2023-02-11T07:25:17;7.37;;;5.47;;
16197;SDS011;8206;51.440;6.914;2023-02-11T07:27:44;7.53;;;6.93;;
16197;SDS011;8206;51.440;6.914;2023-02-11T07:30:11;11.63;;;6.43;;
16197;SDS011;8206;51.440;6.914;2023-02-11T07:32:40;6.13;;;5.63;;
16197;SDS011;8206;51.440;6.914;2023-02-11T07:35:07;16.57;;;7.27;;
16197;SDS011;8206;51.440;6.914;2023-02-11T07:37:33;22.93;;;5.97;;
16197;SDS011;8206;51.440;6.914;2023-02-11T07:40:01;11.07;;;7.97;;
16197;SDS011;8206;51.440;6.914;2023-02-11T07:42:28;8.37;;;7.17;;
16197;SDS011;8206;51.440;6.914;2023-02-11T07:44:55;9.13;;;6.90;;
16197;SDS011;8206;51.440;6.914;2023-02-11T07:47:22;8.13;;;7.37;;
16197;SDS011;8206;51.440;6.914;2023-02-11T07:49:50;11.63;;;9.17;;
16197;SDS011;8206;51.440;6.914;2023-02-11T07:52:16;14.17;;;6.53;;
16197;SDS011;8206;51.440;6.914;2023-02-11T07:54:43;18.73;;;10.77;;
16197;SDS011;8206;51.440;6.914;2023-02-11T07:57:10;14.77;;;8.10;;
16197;SDS011;8206;51.440;6.914;2023-02-11T07:59:37;11.80;;;5.03;;
16197;SDS011;8206;51.440;6.914;2023-02-11T08:02:04;7.40;;;6.80;;
16197;SDS011;8206;51.440;6.914;2023-02-11T08:04:30;7.07;;;6.43;;
16197;SDS011;8206;51.440;6.914;2023-02-11T08:06:58;12.87;;;7.77;;
16197;SDS011;8206;51.440;6.914;2023-02-11T08:09:25;18.03;;;7.03;;
16197;SDS011;8206;51.440;6.914;2023-02-11T08:11:52;44.73;;;7.93;;
16197;SDS011;8206;51.440;6.914;2023-02-11T08:14:19;14.27;;;6.30;;
16197;SDS011;8206;51.440;6.914;2023-02-11T08:16:45;6.43;;;5.83;;
16197;SDS011;8206;51.440;6.914;2023-02-11T08:19:13;7.00;;;5.83;;
16197;SDS011;8206;51.440;6.914;2023-02-11T08:21:41;7.73;;;6.73;;
16197;SDS011;8206;51.440;6.914;2023-02-11T08:24:10;9.53;;;8.03;;
16197;SDS011;8206;51.440;6.914;2023-02-11T08:26:37;4.90;;;4.40;;
16197;SDS011;8206;51.440;6.914;2023-02-11T08:29:06;9.87;;;8.67;;
16197;SDS011;8206;51.440;6.914;2023-02-11T08:31:35;15.00;;;9.93;;
16197;SDS011;8206;51.440;6.914;2023-02-11T08:34:03;7.60;;;6.67;;
16197;SDS011;8206;51.440;6.914;2023-02-11T08:36:31;16.70;;;10.67;;
16197;SDS011;8206;51.440;6.914;2023-02-11T08:39:00;9.60;;;7.47;;
16197;SDS011;8206;51.440;6.914;2023-02-11T08:41:30;12.63;;;8.23;;
16197;SDS011;8206;51.440;6.914;2023-02-11T08:43:57;8.60;;;7.67;;
16197;SDS011;8206;51.440;6.914;2023-02-11T08:46:24;19.03;;;8.20;;
16197;SDS011;8206;51.440;6.914;2023-02-11T08:48:51;8.40;;;7.37;;
16197;SDS011;8206;51.440;6.914;2023-02-11T08:51:19;5.80;;;5.47;;
16197;SDS011;8206;51.440;6.914;2023-02-11T08:53:48;14.03;;;8.57;;
16197;SDS011;8206;51.440;6.914;2023-02-11T08:56:16;6.43;;;6.07;;
16197;SDS011;8206;51.440;6.914;2023-02-11T08:58:45;12.00;;;9.50;;
16197;SDS011;8206;51.440;6.914;2023-02-11T09:01:13;19.30;;;9.07;;
16197;SDS011;8206;51.440;6.914;2023-02-11T09:03:43;8.37;;;7.73;;
16197;SDS011;8206;51.440;6.914;2023-02-11T09:06:10;9.97;;;6.87;;
16197;SDS011;8206;51.440;6.914;2023-02-11T09:08:39;11.37;;;8.70;;
16197;SDS011;8206;51.440;6.914;2023-02-11T09:11:08;17.13;;;6.90;;
16197;SDS011;8206;51.440;6.914;2023-02-11T09:13:35;13.47;;;7.87;;
16197;SDS011;8206;51.440;6.914;2023-02-11T09:16:04;16.13;;;8.30;;
16197;SDS011;8206;51.440;6.914;2023-02-11T09:18:32;9.30;;;8.10;;
16197;SDS011;8206;51.440;6.914;2023-02-11T09:21:00;10.30;;;7.10;;
16197;SDS011;8206;51.440;6.914;2023-02-11T09:23:28;13.23;;;8.23;;
16197;SDS011;8206;51.440;6.914;2023-02-11T09:25:55;14.77;;;9.43;;
16197;SDS011;8206;51.440;6.914;2023-02-11T09:28:21;14.77;;;7.90;;
16197;SDS011;8206;51.440;6.914;2023-02-11T09:30:48;12.73;;;7.67;;
16197;SDS011;8206;51.440;6.914;2023-02-11T09:33:16;34.33;;;9.57;;
16197;SDS011;8206;51.440;6.914;2023-02-11T09:35:43;10.73;;;7.37;;
16197;SDS011;8206;51.440;6.914;2023-02-11T09:38:09;9.83;;;8.77;;
16197;SDS011;8206;51.440;6.914;2023-02-11T09:40:37;6.93;;;6.33;;
16197;SDS011;8206;51.440;6.914;2023-02-11T09:43:09;8.43;;;7.73;;
16197;SDS011;8206;51.440;6.914;2023-02-11T09:45:39;11.43;;;8.17;;
16197;SDS011;8206;51.440;6.914;2023-02-11T09:48:09;15.33;;;9.23;;
16197;SDS011;8206;51.440;6.914;2023-02-11T09:50:41;35.27;;;12.17;;
16197;SDS011;8206;51.440;6.914;2023-02-11T09:53:12;8.07;;;7.47;;
16197;SDS011;8206;51.440;6.914;2023-02-11T09:55:44;10.27;;;6.20;;
16197;SDS011;8206;51.440;6.914;2023-02-11T09:58:13;12.40;;;9.67;;
16197;SDS011;8206;51.440;6.914;2023-02-11T10:00:42;10.87;;;8.53;;
16197;SDS011;8206;51.440;6.914;2023-02-11T10:03:17;11.40;;;9.93;;
16197;SDS011;8206;51.440;6.914;2023-02-11T10:06:11;9.60;;;7.73;;
16197;SDS011;8206;51.440;6.914;2023-02-11T10:08:52;15.20;;;8.27;;
16197;SDS011;8206;51.440;6.914;2023-02-11T10:11:29;7.87;;;7.13;;
16197;SDS011;8206;51.440;6.914;2023-02-11T10:14:07;12.33;;;9.17;;
16197;SDS011;8206;51.440;6.914;2023-02-11T10:16:50;10.03;;;8.77;;
16197;SDS011;8206;51.440;6.914;2023-02-11T10:19:26;14.17;;;9.30;;
16197;SDS011;8206;51.440;6.914;2023-02-11T10:22:09;8.53;;;7.87;;
16197;SDS011;8206;51.440;6.914;2023-02-11T10:24:40;22.50;;;11.57;;
16197;SDS011;8206;51.440;6.914;2023-02-11T10:27:14;11.50;;;10.43;;
16197;SDS011;8206;51.440;6.914;2023-02-11T10:29:45;21.93;;;8.77;;
16197;SDS011;8206;51.440;6.914;2023-02-11T10:32:21;8.03;;;7.40;;
16197;SDS011;8206;51.440;6.914;2023-02-11T10:34:53;25.97;;;12.50;;
16197;SDS011;8206;51.440;6.914;2023-02-11T10:37:24;8.07;;;7.40;;
16197;SDS011;8206;51.440;6.914;2023-02-11T10:39:51;9.03;;;7.00;;
16197;SDS011;8206;51.440;6.914;2023-02-11T10:42:18;16.00;;;8.87;;
16197;SDS011;8206;51.440;6.914;2023-02-11T10:44:48;16.17;;;9.43;;
16197;SDS011;8206;51.440;6.914;2023-02-11T10:47:23;10.93;;;7.50;;
16197;SDS011;8206;51.440;6.914;2023-02-11T10:49:52;8.93;;;8.00;;
16197;SDS011;8206;51.440;6.914;2023-02-11T10:52:20;19.33;;;10.40;;
16197;SDS011;8206;51.440;6.914;2023-02-11T10:54:57;10.63;;;9.70;;
16197;SDS011;8206;51.440;6.914;2023-02-11T10:57:27;20.67;;;10.20;;
16197;SDS011;8206;51.440;6.914;2023-02-11T10:59:57;15.27;;;10.60;;
16197;SDS011;8206;51.440;6.914;2023-02-11T11:02:27;16.83;;;8.43;;
16197;SDS011;8206;51.440;6.914;2023-02-11T11:04:58;10.67;;;7.97;;
16197;SDS011;8206;51.440;6.914;2023-02-11T11:07:29;16.23;;;8.97;;
16197;SDS011;8206;51.440;6.914;2023-02-11T11:10:00;17.83;;;10.50;;
16197;SDS011;8206;51.440;6.914;2023-02-11T11:12:33;7.93;;;7.27;;
16197;SDS011;8206;51.440;6.914;2023-02-11T11:15:12;17.83;;;9.53;;
16197;SDS011;8206;51.440;6.914;2023-02-11T11:17:42;12.70;;;9.37;;
16197;SDS011;8206;51.440;6.914;2023-02-11T11:20:13;6.80;;;6.20;;
16197;SDS011;8206;51.440;6.914;2023-02-11T11:22:44;16.57;;;10.00;;
16197;SDS011;8206;51.440;6.914;2023-02-11T11:25:23;9.37;;;8.33;;
16197;SDS011;8206;51.440;6.914;2023-02-11T11:27:52;10.13;;;8.70;;
16197;SDS011;8206;51.440;6.914;2023-02-11T11:30:22;18.67;;;12.00;;
16197;SDS011;8206;51.440;6.914;2023-02-11T11:32:52;10.30;;;8.83;;
16197;SDS011;8206;51.440;6.914;2023-02-11T11:35:22;9.37;;;8.57;;
16197;SDS011;8206;51.440;6.914;2023-02-11T11:37:52;12.73;;;8.50;;
16197;SDS011;8206;51.440;6.914;2023-02-11T11:40:25;14.00;;;9.43;;
16197;SDS011;8206;51.440;6.914;2023-02-11T11:43:03;11.27;;;10.27;;
16197;SDS011;8206;51.440;6.914;2023-02-11T11:45:42;10.70;;;7.17;;
16197;SDS011;8206;51.440;6.914;2023-02-11T11:48:20;7.63;;;7.07;;
16197;SDS011;8206;51.440;6.914;2023-02-11T11:50:51;12.70;;;9.17;;
16197;SDS011;8206;51.440;6.914;2023-02-11T11:53:21;15.43;;;9.60;;
16197;SDS011;8206;51.440;6.914;2023-02-11T11:55:54;19.57;;;11.20;;
16197;SDS011;8206;51.440;6.914;2023-02-11T11:58:27;16.33;;;10.63;;
16197;SDS011;8206;51.440;6.914;2023-02-11T12:00:58;10.87;;;8.93;;
16197;SDS011;8206;51.440;6.914;2023-02-11T12:06:36;14.00;;;10.03;;
16197;SDS011;8206;51.440;6.914;2023-02-11T12:09:11;10.50;;;7.27;;
16197;SDS011;8206;51.440;6.914;2023-02-11T12:11:59;17.37;;;8.60;;
16197;SDS011;8206;51.440;6.914;2023-02-11T12:14:40;10.70;;;9.57;;
16197;SDS011;8206;51.440;6.914;2023-02-11T12:17:17;21.10;;;10.33;;
16197;SDS011;8206;51.440;6.914;2023-02-11T12:20:03;8.50;;;7.70;;
16197;SDS011;8206;51.440;6.914;2023-02-11T12:22:50;17.57;;;8.83;;
16197;SDS011;8206;51.440;6.914;2023-02-11T12:25:29;8.53;;;7.83;;
16197;SDS011;8206;51.440;6.914;2023-02-11T12:28:12;13.33;;;10.87;;
16197;SDS011;8206;51.440;6.914;2023-02-11T12:30:48;12.20;;;8.57;;
16197;SDS011;8206;51.440;6.914;2023-02-11T12:33:39;12.67;;;11.40;;
16197;SDS011;8206;51.440;6.914;2023-02-11T12:36:24;24.93;;;9.43;;
16197;SDS011;8206;51.440;6.914;2023-02-11T12:39:05;11.10;;;10.10;;
16197;SDS011;8206;51.440;6.914;2023-02-11T12:41:47;8.33;;;7.53;;
16197;SDS011;8206;51.440;6.914;2023-02-11T12:44:51;9.40;;;8.67;;
16197;SDS011;8206;51.440;6.914;2023-02-11T12:47:31;15.13;;;11.00;;
16197;SDS011;8206;51.440;6.914;2023-02-11T12:50:08;11.33;;;9.03;;
16197;SDS011;8206;51.440;6.914;2023-02-11T12:52:47;16.47;;;9.53;;
16197;SDS011;8206;51.440;6.914;2023-02-11T12:55:23;15.07;;;7.73;;
16197;SDS011;8206;51.440;6.914;2023-02-11T12:57:53;11.90;;;10.63;;
16197;SDS011;8206;51.440;6.914;2023-02-11T13:00:25;9.23;;;7.77;;
16197;SDS011;8206;51.440;6.914;2023-02-11T13:02:58;23.07;;;10.73;;
16197;SDS011;8206;51.440;6.914;2023-02-11T13:05:30;9.20;;;8.40;;
16197;SDS011;8206;51.440;6.914;2023-02-11T13:08:03;9.03;;;7.90;;
16197;SDS011;8206;51.440;6.914;2023-02-11T13:10:36;15.57;;;8.77;;
16197;SDS011;8206;51.440;6.914;2023-02-11T13:13:10;11.37;;;9.80;;
16197;SDS011;8206;51.440;6.914;2023-02-11T13:15:45;21.37;;;12.50;;
16197;SDS011;8206;51.440;6.914;2023-02-11T13:18:29;12.47;;;9.57;;
16197;SDS011;8206;51.440;6.914;2023-02-11T13:21:15;10.07;;;9.33;;
16197;SDS011;8206;51.440;6.914;2023-02-11T13:23:52;9.90;;;9.00;;
16197;SDS011;8206;51.440;6.914;2023-02-11T13:26:24;12.20;;;8.03;;
16197;SDS011;8206;51.440;6.914;2023-02-11T13:28:55;16.03;;;11.07;;
16197;SDS011;8206;51.440;6.914;2023-02-11T13:31:34;12.13;;;8.93;;
16197;SDS011;8206;51.440;6.914;2023-02-11T13:34:01;10.63;;;8.20;;
16197;SDS011;8206;51.440;6.914;2023-02-11T13:36:28;10.27;;;8.57;;
16197;SDS011;8206;51.440;6.914;2023-02-11T13:38:59;12.60;;;10.03;;
16197;SDS011;8206;51.440;6.914;2023-02-11T13:41:31;25.20;;;11.73;;
16197;SDS011;8206;51.440;6.914;2023-02-11T13:44:02;8.47;;;7.63;;
16197;SDS011;8206;51.440;6.914;2023-02-11T13:49:27;23.37;;;9.30;;
16197;SDS011;8206;51.440;6.914;2023-02-11T13:51:56;24.13;;;9.90;;
16197;SDS011;8206;51.440;6.914;2023-02-11T13:54:27;18.53;;;11.63;;
16197;SDS011;8206;51.440;6.914;2023-02-11T13:57:20;11.13;;;7.93;;
16197;SDS011;8206;51.440;6.914;2023-02-11T14:03:25;9.30;;;8.43;;
16197;SDS011;8206;51.440;6.914;2023-02-11T14:06:15;14.70;;;9.20;;
16197;SDS011;8206;51.440;6.914;2023-02-11T14:09:31;17.73;;;10.87;;
16197;SDS011;8206;51.440;6.914;2023-02-11T14:14:56;11.43;;;8.57;;
16197;SDS011;8206;51.440;6.914;2023-02-11T14:17:31;9.30;;;8.13;;
16197;SDS011;8206;51.440;6.914;2023-02-11T14:20:01;11.93;;;9.53;;
16197;SDS011;8206;51.440;6.914;2023-02-11T14:22:30;19.63;;;9.27;;
16197;SDS011;8206;51.440;6.914;2023-02-11T14:25:14;12.43;;;8.23;;
16197;SDS011;8206;51.440;6.914;2023-02-11T14:27:45;9.10;;;8.10;;
16197;SDS011;8206;51.440;6.914;2023-02-11T14:30:28;23.33;;;9.77;;
16197;SDS011;8206;51.440;6.914;2023-02-11T14:33:21;14.87;;;9.00;;
16197;SDS011;8206;51.440;6.914;2023-02-11T14:36:32;12.80;;;8.67;;
16197;SDS011;8206;51.440;6.914;2023-02-11T14:39:08;12.97;;;8.63;;
16197;SDS011;8206;51.440;6.914;2023-02-11T14:41:44;12.40;;;7.93;;
16197;SDS011;8206;51.440;6.914;2023-02-11T14:44:15;17.97;;;7.20;;
16197;SDS011;8206;51.440;6.914;2023-02-11T14:46:46;9.33;;;8.00;;
16197;SDS011;8206;51.440;6.914;2023-02-11T14:49:19;12.03;;;8.43;;
16197;SDS011;8206;51.440;6.914;2023-02-11T14:51:52;14.30;;;9.80;;
16197;SDS011;8206;51.440;6.914;2023-02-11T14:54:22;10.50;;;9.57;;
16197;SDS011;8206;51.440;6.914;2023-02-11T14:57:04;16.87;;;11.83;;
16197;SDS011;8206;51.440;6.914;2023-02-11T14:59:32;16.37;;;9.23;;
16197;SDS011;8206;51.440;6.914;2023-02-11T15:01:59;21.23;;;10.67;;
16197;SDS011;8206;51.440;6.914;2023-02-11T15:04:27;12.17;;;7.70;;
16197;SDS011;8206;51.440;6.914;2023-02-11T15:06:57;8.73;;;7.87;;
16197;SDS011;8206;51.440;6.914;2023-02-11T15:09:31;7.70;;;7.00;;
16197;SDS011;8206;51.440;6.914;2023-02-11T15:11:56;13.77;;;9.80;;
16197;SDS011;8206;51.440;6.914;2023-02-11T15:14:24;9.07;;;8.30;;
16197;SDS011;8206;51.440;6.914;2023-02-11T15:16:53;13.33;;;10.80;;
16197;SDS011;8206;51.440;6.914;2023-02-11T15:19:23;15.10;;;9.03;;
16197;SDS011;8206;51.440;6.914;2023-02-11T15:21:54;9.93;;;8.90;;
16197;SDS011;8206;51.440;6.914;2023-02-11T15:24:24;10.50;;;9.07;;
16197;SDS011;8206;51.440;6.914;2023-02-11T15:26:56;9.47;;;8.63;;
16197;SDS011;8206;51.440;6.914;2023-02-11T15:29:27;9.93;;;9.00;;
16197;SDS011;8206;51.440;6.914;2023-02-11T15:32:03;11.17;;;8.30;;
16197;SDS011;8206;51.440;6.914;2023-02-11T15:34:32;12.23;;;11.00;;
16197;SDS011;8206;51.440;6.914;2023-02-11T15:36:59;15.13;;;8.97;;
16197;SDS011;8206;51.440;6.914;2023-02-11T15:39:31;15.50;;;11.03;;